sensor_id;sensor_type;location;lat;lon;timestamp;P1;durP1;ratioP1;P2;durP2;ratioP2
79308;SDS011;68767;53.078;7.386;2023-06-19T00:01:08;11.93;;;6.93;;
79308;SDS011;68767;53.078;7.386;2023-06-19T00:03:35;10.05;;;6.88;;
79308;SDS011;68767;53.078;7.386;2023-06-19T00:06:02;9.23;;;6.22;;
79308;SDS011;68767;53.078;7.386;2023-06-19T00:08:29;12.10;;;6.72;;
79308;SDS011;68767;53.078;7.386;2023-06-19T00:10:57;11.73;;;7.05;;
79308;SDS011;68767;53.078;7.386;2023-06-19T00:13:24;9.48;;;6.70;;
79308;SDS011;68767;53.078;7.386;2023-06-19T00:15:51;11.05;;;6.80;;
79308;SDS011;68767;53.078;7.386;2023-06-19T00:18:18;9.88;;;6.47;;
79308;SDS011;68767;53.078;7.386;2023-06-19T00:20:46;9.60;;;6.97;;
79308;SDS011;68767;53.078;7.386;2023-06-19T00:23:13;12.95;;;7.45;;
79308;SDS011;68767;53.078;7.386;2023-06-19T00:25:43;11.70;;;6.88;;
79308;SDS011;68767;53.078;7.386;2023-06-19T00:28:11;9.48;;;6.72;;
79308;SDS011;68767;53.078;7.386;2023-06-19T00:30:41;9.70;;;7.00;;
79308;SDS011;68767;53.078;7.386;2023-06-19T00:33:08;11.77;;;6.75;;
79308;SDS011;68767;53.078;7.386;2023-06-19T00:35:35;9.43;;;6.43;;
79308;SDS011;68767;53.078;7.386;2023-06-19T00:38:04;10.98;;;6.90;;
79308;SDS011;68767;53.078;7.386;2023-06-19T00:40:32;11.93;;;6.25;;
79308;SDS011;68767;53.078;7.386;2023-06-19T00:43:00;12.55;;;7.35;;
79308;SDS011;68767;53.078;7.386;2023-06-19T00:45:28;9.88;;;6.93;;
79308;SDS011;68767;53.078;7.386;2023-06-19T00:47:56;8.57;;;6.40;;
79308;SDS011;68767;53.078;7.386;2023-06-19T00:50:24;9.35;;;6.72;;
79308;SDS011;68767;53.078;7.386;2023-06-19T00:52:52;10.90;;;6.78;;
79308;SDS011;68767;53.078;7.386;2023-06-19T00:55:19;8.95;;;6.53;;
79308;SDS011;68767;53.078;7.386;2023-06-19T00:57:47;11.40;;;6.97;;
79308;SDS011;68767;53.078;7.386;2023-06-19T01:00:16;10.35;;;7.10;;
79308;SDS011;68767;53.078;7.386;2023-06-19T01:02:44;10.43;;;6.95;;
79308;SDS011;68767;53.078;7.386;2023-06-19T01:05:13;10.82;;;6.85;;
79308;SDS011;68767;53.078;7.386;2023-06-19T01:07:54;15.00;;;7.20;;
79308;SDS011;68767;53.078;7.386;2023-06-19T01:10:41;10.35;;;6.70;;
79308;SDS011;68767;53.078;7.386;2023-06-19T01:13:19;9.07;;;6.63;;
79308;SDS011;68767;53.078;7.386;2023-06-19T01:15:53;9.48;;;6.72;;
79308;SDS011;68767;53.078;7.386;2023-06-19T01:18:22;11.73;;;7.30;;
79308;SDS011;68767;53.078;7.386;2023-06-19T01:20:51;10.48;;;6.70;;
79308;SDS011;68767;53.078;7.386;2023-06-19T01:23:18;13.75;;;7.28;;
79308;SDS011;68767;53.078;7.386;2023-06-19T01:25:45;11.60;;;6.60;;
79308;SDS011;68767;53.078;7.386;2023-06-19T01:28:12;10.68;;;6.80;;
79308;SDS011;68767;53.078;7.386;2023-06-19T01:30:40;13.35;;;7.10;;
79308;SDS011;68767;53.078;7.386;2023-06-19T01:35:38;9.93;;;6.53;;
79308;SDS011;68767;53.078;7.386;2023-06-19T01:38:08;13.43;;;6.43;;
79308;SDS011;68767;53.078;7.386;2023-06-19T01:40:37;11.27;;;6.75;;
79308;SDS011;68767;53.078;7.386;2023-06-19T01:43:06;10.15;;;7.00;;
79308;SDS011;68767;53.078;7.386;2023-06-19T01:45:34;11.73;;;7.28;;
79308;SDS011;68767;53.078;7.386;2023-06-19T01:48:01;11.25;;;7.00;;
79308;SDS011;68767;53.078;7.386;2023-06-19T01:50:29;11.20;;;7.00;;
79308;SDS011;68767;53.078;7.386;2023-06-19T01:52:56;10.05;;;7.10;;
79308;SDS011;68767;53.078;7.386;2023-06-19T01:55:23;13.70;;;7.38;;
79308;SDS011;68767;53.078;7.386;2023-06-19T01:57:50;11.40;;;6.90;;
79308;SDS011;68767;53.078;7.386;2023-06-19T02:00:17;11.57;;;6.97;;
79308;SDS011;68767;53.078;7.386;2023-06-19T02:02:44;11.98;;;6.38;;
79308;SDS011;68767;53.078;7.386;2023-06-19T02:05:11;11.18;;;7.53;;
79308;SDS011;68767;53.078;7.386;2023-06-19T02:07:39;10.52;;;6.50;;
79308;SDS011;68767;53.078;7.386;2023-06-19T02:10:06;11.25;;;7.10;;
79308;SDS011;68767;53.078;7.386;2023-06-19T02:12:34;10.50;;;7.35;;
79308;SDS011;68767;53.078;7.386;2023-06-19T02:15:04;10.45;;;6.57;;
79308;SDS011;68767;53.078;7.386;2023-06-19T02:17:31;9.05;;;6.50;;
79308;SDS011;68767;53.078;7.386;2023-06-19T02:19:58;11.15;;;7.38;;
79308;SDS011;68767;53.078;7.386;2023-06-19T02:22:25;10.80;;;6.72;;
79308;SDS011;68767;53.078;7.386;2023-06-19T02:24:53;12.32;;;7.15;;
79308;SDS011;68767;53.078;7.386;2023-06-19T02:27:19;12.95;;;7.13;;
79308;SDS011;68767;53.078;7.386;2023-06-19T02:29:46;9.73;;;7.05;;
79308;SDS011;68767;53.078;7.386;2023-06-19T02:32:13;10.63;;;7.18;;
79308;SDS011;68767;53.078;7.386;2023-06-19T02:34:40;9.93;;;6.35;;
79308;SDS011;68767;53.078;7.386;2023-06-19T02:37:07;11.05;;;7.30;;
79308;SDS011;68767;53.078;7.386;2023-06-19T02:39:36;10.15;;;6.80;;
79308;SDS011;68767;53.078;7.386;2023-06-19T02:42:03;10.93;;;7.15;;
79308;SDS011;68767;53.078;7.386;2023-06-19T02:44:30;10.07;;;6.88;;
79308;SDS011;68767;53.078;7.386;2023-06-19T02:46:57;11.02;;;6.45;;
79308;SDS011;68767;53.078;7.386;2023-06-19T02:49:24;10.43;;;6.78;;
79308;SDS011;68767;53.078;7.386;2023-06-19T02:51:53;12.13;;;7.00;;
79308;SDS011;68767;53.078;7.386;2023-06-19T02:54:20;11.60;;;7.25;;
79308;SDS011;68767;53.078;7.386;2023-06-19T02:56:47;11.80;;;7.30;;
79308;SDS011;68767;53.078;7.386;2023-06-19T02:59:16;11.93;;;7.05;;
79308;SDS011;68767;53.078;7.386;2023-06-19T03:01:43;10.85;;;6.80;;
79308;SDS011;68767;53.078;7.386;2023-06-19T03:04:12;12.52;;;7.18;;
79308;SDS011;68767;53.078;7.386;2023-06-19T03:06:40;11.98;;;7.15;;
79308;SDS011;68767;53.078;7.386;2023-06-19T03:09:07;9.43;;;6.80;;
79308;SDS011;68767;53.078;7.386;2023-06-19T03:11:39;11.35;;;7.60;;
79308;SDS011;68767;53.078;7.386;2023-06-19T03:14:07;10.82;;;7.18;;
79308;SDS011;68767;53.078;7.386;2023-06-19T03:16:36;9.13;;;6.78;;
79308;SDS011;68767;53.078;7.386;2023-06-19T03:19:03;10.88;;;6.60;;
79308;SDS011;68767;53.078;7.386;2023-06-19T03:21:32;11.05;;;6.60;;
79308;SDS011;68767;53.078;7.386;2023-06-19T03:23:59;10.65;;;7.32;;
79308;SDS011;68767;53.078;7.386;2023-06-19T03:26:26;11.05;;;6.60;;
79308;SDS011;68767;53.078;7.386;2023-06-19T03:28:58;10.35;;;7.35;;
79308;SDS011;68767;53.078;7.386;2023-06-19T03:31:28;12.57;;;6.45;;
79308;SDS011;68767;53.078;7.386;2023-06-19T03:33:55;14.93;;;6.95;;
79308;SDS011;68767;53.078;7.386;2023-06-19T03:36:23;10.60;;;7.07;;
79308;SDS011;68767;53.078;7.386;2023-06-19T03:38:51;10.40;;;7.13;;
79308;SDS011;68767;53.078;7.386;2023-06-19T03:41:24;13.80;;;7.63;;
79308;SDS011;68767;53.078;7.386;2023-06-19T03:43:52;9.68;;;7.25;;
79308;SDS011;68767;53.078;7.386;2023-06-19T03:46:19;11.90;;;7.60;;
79308;SDS011;68767;53.078;7.386;2023-06-19T03:48:46;9.52;;;7.18;;
79308;SDS011;68767;53.078;7.386;2023-06-19T03:51:13;12.15;;;7.07;;
79308;SDS011;68767;53.078;7.386;2023-06-19T03:53:40;11.30;;;6.57;;
79308;SDS011;68767;53.078;7.386;2023-06-19T03:56:08;10.98;;;6.70;;
79308;SDS011;68767;53.078;7.386;2023-06-19T03:58:35;12.00;;;7.25;;
79308;SDS011;68767;53.078;7.386;2023-06-19T04:01:02;10.23;;;6.68;;
79308;SDS011;68767;53.078;7.386;2023-06-19T04:03:31;11.77;;;7.13;;
79308;SDS011;68767;53.078;7.386;2023-06-19T04:05:58;14.35;;;6.93;;
79308;SDS011;68767;53.078;7.386;2023-06-19T04:08:25;11.60;;;7.40;;
79308;SDS011;68767;53.078;7.386;2023-06-19T04:10:55;10.88;;;7.28;;
79308;SDS011;68767;53.078;7.386;2023-06-19T04:13:22;9.63;;;6.97;;
79308;SDS011;68767;53.078;7.386;2023-06-19T04:15:50;11.20;;;7.05;;
79308;SDS011;68767;53.078;7.386;2023-06-19T04:18:17;10.82;;;7.22;;
79308;SDS011;68767;53.078;7.386;2023-06-19T04:20:44;10.90;;;6.90;;
79308;SDS011;68767;53.078;7.386;2023-06-19T04:23:11;11.30;;;7.28;;
79308;SDS011;68767;53.078;7.386;2023-06-19T04:25:39;12.77;;;7.47;;
79308;SDS011;68767;53.078;7.386;2023-06-19T04:28:06;10.25;;;6.93;;
79308;SDS011;68767;53.078;7.386;2023-06-19T04:30:33;12.20;;;7.47;;
79308;SDS011;68767;53.078;7.386;2023-06-19T04:33:00;11.00;;;7.10;;
79308;SDS011;68767;53.078;7.386;2023-06-19T04:35:27;12.65;;;7.72;;
79308;SDS011;68767;53.078;7.386;2023-06-19T04:37:54;13.23;;;7.82;;
79308;SDS011;68767;53.078;7.386;2023-06-19T04:40:21;11.55;;;7.78;;
79308;SDS011;68767;53.078;7.386;2023-06-19T04:42:49;15.50;;;7.60;;
79308;SDS011;68767;53.078;7.386;2023-06-19T04:45:15;11.32;;;7.00;;
79308;SDS011;68767;53.078;7.386;2023-06-19T04:47:43;10.27;;;6.70;;
79308;SDS011;68767;53.078;7.386;2023-06-19T04:50:19;14.27;;;7.78;;
79308;SDS011;68767;53.078;7.386;2023-06-19T04:52:48;12.70;;;7.13;;
79308;SDS011;68767;53.078;7.386;2023-06-19T04:55:18;12.13;;;7.63;;
79308;SDS011;68767;53.078;7.386;2023-06-19T04:57:45;13.00;;;8.18;;
79308;SDS011;68767;53.078;7.386;2023-06-19T05:00:12;12.30;;;7.13;;
79308;SDS011;68767;53.078;7.386;2023-06-19T05:02:41;16.77;;;7.43;;
79308;SDS011;68767;53.078;7.386;2023-06-19T05:05:13;13.18;;;7.40;;
79308;SDS011;68767;53.078;7.386;2023-06-19T05:07:40;11.43;;;7.30;;
79308;SDS011;68767;53.078;7.386;2023-06-19T05:10:08;10.85;;;7.10;;
79308;SDS011;68767;53.078;7.386;2023-06-19T05:12:35;13.38;;;7.47;;
79308;SDS011;68767;53.078;7.386;2023-06-19T05:15:02;11.07;;;6.82;;
79308;SDS011;68767;53.078;7.386;2023-06-19T05:17:29;11.15;;;6.85;;
79308;SDS011;68767;53.078;7.386;2023-06-19T05:19:56;15.80;;;6.93;;
79308;SDS011;68767;53.078;7.386;2023-06-19T05:22:23;9.63;;;6.38;;
79308;SDS011;68767;53.078;7.386;2023-06-19T05:24:50;9.82;;;6.38;;
79308;SDS011;68767;53.078;7.386;2023-06-19T05:27:17;10.23;;;7.10;;
79308;SDS011;68767;53.078;7.386;2023-06-19T05:29:44;9.63;;;6.40;;
79308;SDS011;68767;53.078;7.386;2023-06-19T05:32:11;9.98;;;6.50;;
79308;SDS011;68767;53.078;7.386;2023-06-19T05:34:38;11.02;;;6.68;;
79308;SDS011;68767;53.078;7.386;2023-06-19T05:37:05;9.93;;;6.15;;
79308;SDS011;68767;53.078;7.386;2023-06-19T05:39:32;9.27;;;6.38;;
79308;SDS011;68767;53.078;7.386;2023-06-19T05:41:59;13.73;;;6.75;;
79308;SDS011;68767;53.078;7.386;2023-06-19T05:44:26;11.02;;;6.18;;
79308;SDS011;68767;53.078;7.386;2023-06-19T05:46:52;10.10;;;7.00;;
79308;SDS011;68767;53.078;7.386;2023-06-19T05:49:19;9.27;;;6.50;;
79308;SDS011;68767;53.078;7.386;2023-06-19T05:51:46;12.98;;;6.95;;
79308;SDS011;68767;53.078;7.386;2023-06-19T05:54:14;11.77;;;7.35;;
79308;SDS011;68767;53.078;7.386;2023-06-19T05:56:41;10.45;;;6.40;;
79308;SDS011;68767;53.078;7.386;2023-06-19T05:59:08;10.77;;;6.75;;
79308;SDS011;68767;53.078;7.386;2023-06-19T06:01:35;11.52;;;6.10;;
79308;SDS011;68767;53.078;7.386;2023-06-19T06:04:02;11.73;;;6.90;;
79308;SDS011;68767;53.078;7.386;2023-06-19T06:06:29;14.20;;;6.63;;
79308;SDS011;68767;53.078;7.386;2023-06-19T06:08:56;13.93;;;6.05;;
79308;SDS011;68767;53.078;7.386;2023-06-19T06:11:23;13.82;;;6.80;;
79308;SDS011;68767;53.078;7.386;2023-06-19T06:13:50;8.25;;;5.28;;
79308;SDS011;68767;53.078;7.386;2023-06-19T06:16:17;9.18;;;5.13;;
79308;SDS011;68767;53.078;7.386;2023-06-19T06:18:44;10.18;;;5.38;;
79308;SDS011;68767;53.078;7.386;2023-06-19T06:21:12;10.20;;;5.00;;
79308;SDS011;68767;53.078;7.386;2023-06-19T06:23:41;9.77;;;4.70;;
79308;SDS011;68767;53.078;7.386;2023-06-19T06:26:11;7.75;;;5.00;;
79308;SDS011;68767;53.078;7.386;2023-06-19T06:28:38;7.60;;;4.97;;
79308;SDS011;68767;53.078;7.386;2023-06-19T06:31:06;8.82;;;4.82;;
79308;SDS011;68767;53.078;7.386;2023-06-19T06:33:33;8.57;;;5.15;;
79308;SDS011;68767;53.078;7.386;2023-06-19T06:36:01;8.00;;;4.90;;
79308;SDS011;68767;53.078;7.386;2023-06-19T06:38:28;8.70;;;5.05;;
79308;SDS011;68767;53.078;7.386;2023-06-19T06:40:55;9.20;;;4.65;;
79308;SDS011;68767;53.078;7.386;2023-06-19T06:43:22;9.43;;;4.85;;
79308;SDS011;68767;53.078;7.386;2023-06-19T06:45:49;6.60;;;4.20;;
79308;SDS011;68767;53.078;7.386;2023-06-19T06:48:16;8.23;;;4.40;;
79308;SDS011;68767;53.078;7.386;2023-06-19T06:50:43;8.30;;;4.28;;
79308;SDS011;68767;53.078;7.386;2023-06-19T06:53:10;7.43;;;4.07;;
79308;SDS011;68767;53.078;7.386;2023-06-19T06:55:37;8.02;;;4.32;;
79308;SDS011;68767;53.078;7.386;2023-06-19T06:58:04;6.65;;;3.88;;
79308;SDS011;68767;53.078;7.386;2023-06-19T07:00:31;8.35;;;4.68;;
79308;SDS011;68767;53.078;7.386;2023-06-19T07:02:58;7.43;;;4.03;;
79308;SDS011;68767;53.078;7.386;2023-06-19T07:05:25;9.57;;;4.60;;
79308;SDS011;68767;53.078;7.386;2023-06-19T07:07:53;9.52;;;4.80;;
79308;SDS011;68767;53.078;7.386;2023-06-19T07:10:20;10.05;;;5.15;;
79308;SDS011;68767;53.078;7.386;2023-06-19T07:12:47;6.97;;;4.03;;
79308;SDS011;68767;53.078;7.386;2023-06-19T07:15:15;5.97;;;3.80;;
79308;SDS011;68767;53.078;7.386;2023-06-19T07:17:45;6.63;;;4.20;;
79308;SDS011;68767;53.078;7.386;2023-06-19T07:20:13;5.85;;;3.80;;
79308;SDS011;68767;53.078;7.386;2023-06-19T07:22:41;5.68;;;3.92;;
79308;SDS011;68767;53.078;7.386;2023-06-19T07:25:09;6.00;;;3.83;;
79308;SDS011;68767;53.078;7.386;2023-06-19T07:27:37;6.90;;;3.58;;
79308;SDS011;68767;53.078;7.386;2023-06-19T07:30:06;7.55;;;4.07;;
79308;SDS011;68767;53.078;7.386;2023-06-19T07:32:34;6.28;;;4.05;;
79308;SDS011;68767;53.078;7.386;2023-06-19T07:35:01;5.68;;;3.58;;
79308;SDS011;68767;53.078;7.386;2023-06-19T07:37:28;7.32;;;3.70;;
79308;SDS011;68767;53.078;7.386;2023-06-19T07:39:54;6.90;;;3.67;;
79308;SDS011;68767;53.078;7.386;2023-06-19T07:42:22;6.13;;;3.90;;
79308;SDS011;68767;53.078;7.386;2023-06-19T07:44:49;6.60;;;4.20;;
79308;SDS011;68767;53.078;7.386;2023-06-19T07:47:16;7.35;;;4.57;;
79308;SDS011;68767;53.078;7.386;2023-06-19T07:49:47;6.88;;;3.97;;
79308;SDS011;68767;53.078;7.386;2023-06-19T07:52:14;7.72;;;4.20;;
79308;SDS011;68767;53.078;7.386;2023-06-19T07:54:48;6.30;;;4.45;;
79308;SDS011;68767;53.078;7.386;2023-06-19T07:57:19;8.13;;;4.70;;
79308;SDS011;68767;53.078;7.386;2023-06-19T07:59:47;7.20;;;4.50;;
79308;SDS011;68767;53.078;7.386;2023-06-19T08:02:14;10.98;;;4.63;;
79308;SDS011;68767;53.078;7.386;2023-06-19T08:04:42;9.35;;;5.07;;
79308;SDS011;68767;53.078;7.386;2023-06-19T08:07:09;12.30;;;5.20;;
79308;SDS011;68767;53.078;7.386;2023-06-19T08:09:36;7.13;;;4.60;;
79308;SDS011;68767;53.078;7.386;2023-06-19T08:12:03;6.80;;;4.90;;
79308;SDS011;68767;53.078;7.386;2023-06-19T08:14:30;7.60;;;5.65;;
79308;SDS011;68767;53.078;7.386;2023-06-19T08:16:57;8.32;;;5.40;;
79308;SDS011;68767;53.078;7.386;2023-06-19T08:19:24;7.80;;;5.15;;
79308;SDS011;68767;53.078;7.386;2023-06-19T08:21:51;8.82;;;5.53;;
79308;SDS011;68767;53.078;7.386;2023-06-19T08:24:18;8.98;;;5.50;;
79308;SDS011;68767;53.078;7.386;2023-06-19T08:26:47;10.18;;;6.10;;
79308;SDS011;68767;53.078;7.386;2023-06-19T08:29:17;12.65;;;6.35;;
79308;SDS011;68767;53.078;7.386;2023-06-19T08:31:45;9.77;;;6.00;;
79308;SDS011;68767;53.078;7.386;2023-06-19T08:34:12;13.30;;;5.88;;
79308;SDS011;68767;53.078;7.386;2023-06-19T08:36:39;11.70;;;5.95;;
79308;SDS011;68767;53.078;7.386;2023-06-19T08:39:06;10.63;;;6.80;;
79308;SDS011;68767;53.078;7.386;2023-06-19T08:41:38;11.57;;;6.53;;
79308;SDS011;68767;53.078;7.386;2023-06-19T08:44:05;14.95;;;6.15;;
79308;SDS011;68767;53.078;7.386;2023-06-19T08:46:32;8.25;;;5.78;;
79308;SDS011;68767;53.078;7.386;2023-06-19T08:49:01;10.07;;;6.10;;
79308;SDS011;68767;53.078;7.386;2023-06-19T08:51:28;8.68;;;5.43;;
79308;SDS011;68767;53.078;7.386;2023-06-19T08:54:03;7.05;;;4.80;;
79308;SDS011;68767;53.078;7.386;2023-06-19T08:56:31;8.15;;;5.50;;
79308;SDS011;68767;53.078;7.386;2023-06-19T08:59:13;9.85;;;4.97;;
79308;SDS011;68767;53.078;7.386;2023-06-19T09:01:51;9.02;;;5.60;;
79308;SDS011;68767;53.078;7.386;2023-06-19T09:04:25;8.68;;;4.90;;
79308;SDS011;68767;53.078;7.386;2023-06-19T09:09:24;8.95;;;5.03;;
79308;SDS011;68767;53.078;7.386;2023-06-19T09:11:58;7.43;;;5.45;;
79308;SDS011;68767;53.078;7.386;2023-06-19T09:14:37;8.82;;;6.40;;
79308;SDS011;68767;53.078;7.386;2023-06-19T09:17:18;11.20;;;6.20;;
79308;SDS011;68767;53.078;7.386;2023-06-19T09:19:50;8.55;;;6.65;;
79308;SDS011;68767;53.078;7.386;2023-06-19T09:22:18;11.73;;;6.20;;
79308;SDS011;68767;53.078;7.386;2023-06-19T09:24:48;9.02;;;6.70;;
79308;SDS011;68767;53.078;7.386;2023-06-19T09:27:16;11.35;;;6.40;;
79308;SDS011;68767;53.078;7.386;2023-06-19T09:29:46;10.98;;;6.50;;
79308;SDS011;68767;53.078;7.386;2023-06-19T09:34:52;10.23;;;6.97;;
79308;SDS011;68767;53.078;7.386;2023-06-19T09:37:24;11.23;;;7.68;;
79308;SDS011;68767;53.078;7.386;2023-06-19T09:39:57;10.65;;;7.78;;
79308;SDS011;68767;53.078;7.386;2023-06-19T09:42:33;10.55;;;8.60;;
79308;SDS011;68767;53.078;7.386;2023-06-19T09:45:02;15.35;;;8.45;;
79308;SDS011;68767;53.078;7.386;2023-06-19T09:50:04;13.02;;;10.02;;
79308;SDS011;68767;53.078;7.386;2023-06-19T09:52:33;11.63;;;9.27;;
79308;SDS011;68767;53.078;7.386;2023-06-19T09:55:03;12.63;;;9.02;;
79308;SDS011;68767;53.078;7.386;2023-06-19T09:57:32;11.90;;;9.18;;
79308;SDS011;68767;53.078;7.386;2023-06-19T10:00:00;10.68;;;9.10;;
79308;SDS011;68767;53.078;7.386;2023-06-19T10:02:41;13.25;;;9.38;;
79308;SDS011;68767;53.078;7.386;2023-06-19T10:05:10;13.93;;;10.25;;
79308;SDS011;68767;53.078;7.386;2023-06-19T10:07:42;15.73;;;9.43;;
79308;SDS011;68767;53.078;7.386;2023-06-19T10:12:48;11.30;;;9.23;;
79308;SDS011;68767;53.078;7.386;2023-06-19T10:15:19;14.43;;;9.70;;
79308;SDS011;68767;53.078;7.386;2023-06-19T10:20:40;15.55;;;10.18;;
79308;SDS011;68767;53.078;7.386;2023-06-19T10:25:47;12.82;;;9.27;;
79308;SDS011;68767;53.078;7.386;2023-06-19T10:28:31;15.85;;;9.57;;
79308;SDS011;68767;53.078;7.386;2023-06-19T10:31:00;13.68;;;9.55;;
79308;SDS011;68767;53.078;7.386;2023-06-19T10:33:34;13.63;;;8.65;;
79308;SDS011;68767;53.078;7.386;2023-06-19T10:36:16;14.15;;;8.70;;
79308;SDS011;68767;53.078;7.386;2023-06-19T10:38:44;11.93;;;8.43;;
79308;SDS011;68767;53.078;7.386;2023-06-19T10:41:16;15.30;;;9.07;;
79308;SDS011;68767;53.078;7.386;2023-06-19T10:43:54;17.20;;;9.55;;
79308;SDS011;68767;53.078;7.386;2023-06-19T10:46:28;11.50;;;9.27;;
79308;SDS011;68767;53.078;7.386;2023-06-19T10:48:57;13.32;;;9.27;;
79308;SDS011;68767;53.078;7.386;2023-06-19T10:51:28;12.45;;;9.70;;
79308;SDS011;68767;53.078;7.386;2023-06-19T10:53:55;12.98;;;8.90;;
79308;SDS011;68767;53.078;7.386;2023-06-19T10:56:23;12.23;;;7.80;;
79308;SDS011;68767;53.078;7.386;2023-06-19T10:58:57;11.35;;;7.05;;
79308;SDS011;68767;53.078;7.386;2023-06-19T11:01:35;11.57;;;6.43;;
79308;SDS011;68767;53.078;7.386;2023-06-19T11:04:05;10.90;;;6.78;;
79308;SDS011;68767;53.078;7.386;2023-06-19T11:06:33;16.02;;;6.28;;
79308;SDS011;68767;53.078;7.386;2023-06-19T11:09:05;10.27;;;6.45;;
79308;SDS011;68767;53.078;7.386;2023-06-19T11:14:11;8.63;;;6.60;;
79308;SDS011;68767;53.078;7.386;2023-06-19T11:16:42;10.55;;;6.78;;
79308;SDS011;68767;53.078;7.386;2023-06-19T11:19:16;10.65;;;7.15;;
79308;SDS011;68767;53.078;7.386;2023-06-19T11:21:48;10.57;;;7.88;;
79308;SDS011;68767;53.078;7.386;2023-06-19T11:24:17;11.20;;;7.43;;
79308;SDS011;68767;53.078;7.386;2023-06-19T11:26:46;9.32;;;6.15;;
79308;SDS011;68767;53.078;7.386;2023-06-19T11:32:06;12.13;;;7.35;;
79308;SDS011;68767;53.078;7.386;2023-06-19T11:34:38;10.02;;;6.18;;
79308;SDS011;68767;53.078;7.386;2023-06-19T11:37:14;12.98;;;6.15;;
79308;SDS011;68767;53.078;7.386;2023-06-19T11:39:46;11.70;;;6.43;;
79308;SDS011;68767;53.078;7.386;2023-06-19T11:42:14;10.35;;;6.70;;
79308;SDS011;68767;53.078;7.386;2023-06-19T11:44:53;13.25;;;6.93;;
79308;SDS011;68767;53.078;7.386;2023-06-19T11:47:21;9.85;;;6.22;;
79308;SDS011;68767;53.078;7.386;2023-06-19T11:49:50;9.63;;;7.03;;
79308;SDS011;68767;53.078;7.386;2023-06-19T11:52:17;13.15;;;7.70;;
79308;SDS011;68767;53.078;7.386;2023-06-19T11:54:45;16.60;;;6.90;;
79308;SDS011;68767;53.078;7.386;2023-06-19T11:57:12;11.18;;;6.40;;
79308;SDS011;68767;53.078;7.386;2023-06-19T11:59:40;11.48;;;6.90;;
79308;SDS011;68767;53.078;7.386;2023-06-19T12:02:08;9.38;;;6.05;;
79308;SDS011;68767;53.078;7.386;2023-06-19T12:04:35;10.18;;;6.68;;
79308;SDS011;68767;53.078;7.386;2023-06-19T12:07:03;9.98;;;6.47;;
79308;SDS011;68767;53.078;7.386;2023-06-19T12:09:30;11.52;;;6.25;;
79308;SDS011;68767;53.078;7.386;2023-06-19T12:11:58;9.07;;;5.50;;
79308;SDS011;68767;53.078;7.386;2023-06-19T12:14:25;10.90;;;6.20;;
79308;SDS011;68767;53.078;7.386;2023-06-19T12:16:52;11.25;;;6.50;;
79308;SDS011;68767;53.078;7.386;2023-06-19T12:19:19;8.68;;;5.75;;
79308;SDS011;68767;53.078;7.386;2023-06-19T12:21:47;8.95;;;5.80;;
79308;SDS011;68767;53.078;7.386;2023-06-19T12:24:14;10.30;;;5.78;;
79308;SDS011;68767;53.078;7.386;2023-06-19T12:26:41;9.20;;;5.32;;
79308;SDS011;68767;53.078;7.386;2023-06-19T12:29:08;8.45;;;4.70;;
79308;SDS011;68767;53.078;7.386;2023-06-19T12:31:35;10.00;;;4.90;;
79308;SDS011;68767;53.078;7.386;2023-06-19T12:34:04;7.75;;;4.97;;
79308;SDS011;68767;53.078;7.386;2023-06-19T12:36:35;7.38;;;4.53;;
79308;SDS011;68767;53.078;7.386;2023-06-19T12:39:02;7.38;;;5.15;;
79308;SDS011;68767;53.078;7.386;2023-06-19T12:41:32;7.65;;;5.07;;
79308;SDS011;68767;53.078;7.386;2023-06-19T12:43:59;10.55;;;6.07;;
79308;SDS011;68767;53.078;7.386;2023-06-19T12:46:26;9.65;;;5.70;;
79308;SDS011;68767;53.078;7.386;2023-06-19T12:48:53;9.07;;;5.72;;
79308;SDS011;68767;53.078;7.386;2023-06-19T12:51:20;7.70;;;4.85;;
79308;SDS011;68767;53.078;7.386;2023-06-19T12:53:47;11.02;;;5.60;;
79308;SDS011;68767;53.078;7.386;2023-06-19T12:56:14;8.85;;;5.68;;
79308;SDS011;68767;53.078;7.386;2023-06-19T12:58:41;11.48;;;5.10;;
79308;SDS011;68767;53.078;7.386;2023-06-19T13:01:08;9.05;;;5.20;;
79308;SDS011;68767;53.078;7.386;2023-06-19T13:03:35;9.20;;;6.10;;
79308;SDS011;68767;53.078;7.386;2023-06-19T13:06:02;10.95;;;5.65;;
79308;SDS011;68767;53.078;7.386;2023-06-19T13:08:29;9.45;;;5.97;;
79308;SDS011;68767;53.078;7.386;2023-06-19T13:10:56;11.70;;;5.55;;
79308;SDS011;68767;53.078;7.386;2023-06-19T13:13:23;10.10;;;6.50;;
79308;SDS011;68767;53.078;7.386;2023-06-19T13:15:50;11.57;;;6.03;;
79308;SDS011;68767;53.078;7.386;2023-06-19T13:18:17;11.15;;;5.85;;
79308;SDS011;68767;53.078;7.386;2023-06-19T13:20:44;10.65;;;5.60;;
79308;SDS011;68767;53.078;7.386;2023-06-19T13:23:14;9.93;;;5.82;;
79308;SDS011;68767;53.078;7.386;2023-06-19T13:25:41;8.95;;;5.68;;
79308;SDS011;68767;53.078;7.386;2023-06-19T13:28:08;11.45;;;6.43;;
79308;SDS011;68767;53.078;7.386;2023-06-19T13:30:44;11.02;;;5.85;;
79308;SDS011;68767;53.078;7.386;2023-06-19T13:33:11;11.52;;;6.57;;
79308;SDS011;68767;53.078;7.386;2023-06-19T13:35:38;10.98;;;6.20;;
79308;SDS011;68767;53.078;7.386;2023-06-19T13:38:05;11.27;;;5.97;;
79308;SDS011;68767;53.078;7.386;2023-06-19T13:40:33;10.50;;;5.85;;
79308;SDS011;68767;53.078;7.386;2023-06-19T13:43:07;10.65;;;5.53;;
79308;SDS011;68767;53.078;7.386;2023-06-19T13:45:38;12.57;;;5.88;;
79308;SDS011;68767;53.078;7.386;2023-06-19T13:48:08;11.60;;;6.03;;
79308;SDS011;68767;53.078;7.386;2023-06-19T13:50:35;8.18;;;5.00;;
79308;SDS011;68767;53.078;7.386;2023-06-19T13:53:02;7.80;;;5.13;;
79308;SDS011;68767;53.078;7.386;2023-06-19T13:55:29;12.65;;;6.05;;
79308;SDS011;68767;53.078;7.386;2023-06-19T13:58:06;12.40;;;5.97;;
79308;SDS011;68767;53.078;7.386;2023-06-19T14:00:33;10.02;;;5.80;;
79308;SDS011;68767;53.078;7.386;2023-06-19T14:03:03;9.15;;;6.05;;
79308;SDS011;68767;53.078;7.386;2023-06-19T14:05:35;10.27;;;5.95;;
79308;SDS011;68767;53.078;7.386;2023-06-19T14:08:07;10.77;;;5.70;;
79308;SDS011;68767;53.078;7.386;2023-06-19T14:10:52;9.48;;;5.97;;
79308;SDS011;68767;53.078;7.386;2023-06-19T14:13:31;12.80;;;5.95;;
79308;SDS011;68767;53.078;7.386;2023-06-19T14:15:59;8.88;;;5.50;;
79308;SDS011;68767;53.078;7.386;2023-06-19T14:18:29;11.73;;;5.72;;
79308;SDS011;68767;53.078;7.386;2023-06-19T14:20:58;10.43;;;5.50;;
79308;SDS011;68767;53.078;7.386;2023-06-19T14:23:25;9.05;;;5.40;;
79308;SDS011;68767;53.078;7.386;2023-06-19T14:25:54;14.60;;;6.78;;
79308;SDS011;68767;53.078;7.386;2023-06-19T14:28:23;9.48;;;5.22;;
79308;SDS011;68767;53.078;7.386;2023-06-19T14:30:52;9.75;;;5.85;;
79308;SDS011;68767;53.078;7.386;2023-06-19T14:33:19;10.23;;;5.70;;
79308;SDS011;68767;53.078;7.386;2023-06-19T14:35:48;9.18;;;5.68;;
79308;SDS011;68767;53.078;7.386;2023-06-19T14:38:19;11.23;;;5.78;;
79308;SDS011;68767;53.078;7.386;2023-06-19T14:40:46;10.00;;;5.18;;
79308;SDS011;68767;53.078;7.386;2023-06-19T14:43:15;11.18;;;6.22;;
79308;SDS011;68767;53.078;7.386;2023-06-19T14:45:42;9.18;;;5.20;;
79308;SDS011;68767;53.078;7.386;2023-06-19T14:48:09;8.13;;;5.38;;
79308;SDS011;68767;53.078;7.386;2023-06-19T14:50:36;11.05;;;6.20;;
79308;SDS011;68767;53.078;7.386;2023-06-19T14:53:04;10.45;;;5.85;;
79308;SDS011;68767;53.078;7.386;2023-06-19T14:55:31;10.45;;;5.60;;
79308;SDS011;68767;53.078;7.386;2023-06-19T14:57:57;10.50;;;6.15;;
79308;SDS011;68767;53.078;7.386;2023-06-19T15:00:24;9.90;;;6.00;;
79308;SDS011;68767;53.078;7.386;2023-06-19T15:02:52;15.95;;;6.68;;
79308;SDS011;68767;53.078;7.386;2023-06-19T15:05:19;11.40;;;5.97;;
79308;SDS011;68767;53.078;7.386;2023-06-19T15:07:46;11.15;;;5.38;;
79308;SDS011;68767;53.078;7.386;2023-06-19T15:10:13;10.25;;;5.63;;